Blue Star Naxos — SZUI — position and weather

sailwx.info

Track history (hours):
 
Tides and Currents Weather Stations Pressure Air Temp Water Temp Dewpoint Dewpoint Depression Visibility Wind Speed Wind Dir Waves Ship Positions

Blue Star Naxos

Last reported at 2016-Jul-28 10:16 UTC. Time now 2016-Jul-28 18:24 UTC.
Position N 36°59' E 025°20'.

Length 124 m; draft 5 m.

Type: Passenger vessel. MMSI: 239923000.

Date/timePositionNaut miles runAvg speedWind from/ knotsBaromVisibWave heightAir tempDewpointWater temp
2016-Jul-28 10:16N 36°59' E 025°20'710.5
2016-Jul-28 09:33N 37°06' E 025°22'13 9.3
2016-Jul-28 08:09N 37°06' E 025°06'1321.8
2016-Jul-28 07:34N 37°13' E 024°52'4721.9
2016-Jul-28 05:26N 37°35' E 024°00'1921.4
2016-Jul-28 04:33N 37°44' E 023°40'1312.5
2016-Jul-28 03:33N 37°57' E 023°38'0 0.0
2016-Jul-28 02:33N 37°57' E 023°38'0 0.0
2016-Jul-28 01:33N 37°57' E 023°38'0 0.0
2016-Jul-28 00:33N 37°57' E 023°38'0 0.0
2016-Jul-27 23:34N 37°57' E 023°38'0 0.0
2016-Jul-27 22:33N 37°57' E 023°38'0 0.0
2016-Jul-27 21:33N 37°57' E 023°38'0 0.0
2016-Jul-27 20:33N 37°57' E 023°38'0 0.0
2016-Jul-27 19:33N 37°57' E 023°38'0 0.0
2016-Jul-27 18:34N 37°57' E 023°38'0 0.0
2016-Jul-27 17:33N 37°57' E 023°38'4 3.9
2016-Jul-27 16:34N 37°53' E 023°39'2120.9
2016-Jul-27 15:33N 37°37' E 023°57'5416.4
2016-Jul-27 12:17N 37°30' E 025°04'811.2
2016-Jul-27 11:33N 37°30' E 025°14'5 4.8
2016-Jul-27 10:34N 37°28' E 025°19'9 9.1
2016-Jul-27 09:33N 37°32' E 025°09'11 8.1
2016-Jul-27 08:12N 37°27' E 024°57'5721.4
2016-Jul-27 05:34N 37°39' E 023°47'1919.2
2016-Jul-27 04:33N 37°57' E 023°38'0 0.4
2016-Jul-27 03:34N 37°57' E 023°38'0 0.0
2016-Jul-27 02:33N 37°57' E 023°38'0 0.0
2016-Jul-27 01:33N 37°57' E 023°38'1110.8
2016-Jul-27 00:33N 37°46' E 023°42'2120.6
2016-Jul-26 23:33N 37°35' E 024°04'4321.4
2016-Jul-26 21:33N 37°15' E 024°52'2512.7
2016-Jul-26 19:33N 37°07' E 025°22'8 0.8
2016-Jul-26 10:11N 36°59' E 025°20'711.8
2016-Jul-26 09:33N 37°06' E 025°22'2211.1
2016-Jul-26 07:33N 37°12' E 024°55'6622.0
2016-Jul-26 04:33N 37°42' E 023°42'1514.8
2016-Jul-26 03:33N 37°57' E 023°38'0 0.0
2016-Jul-26 02:34N 37°57' E 023°38'0 0.0
2016-Jul-26 01:33N 37°57' E 023°38'0 0.0
2016-Jul-26 00:33N 37°57' E 023°38'0 0.0
2016-Jul-25 23:33N 37°57' E 023°38'0 0.0
2016-Jul-25 22:34N 37°57' E 023°38'0 0.0
2016-Jul-25 21:33N 37°57' E 023°38'0 0.0
2016-Jul-25 20:33N 37°57' E 023°38'0 0.0
2016-Jul-25 19:33N 37°57' E 023°38'0 0.0
2016-Jul-25 18:33N 37°57' E 023°38'0 0.0
2016-Jul-25 17:33N 37°57' E 023°38'3 2.9
2016-Jul-25 16:34N 37°54' E 023°38'2120.9
2016-Jul-25 15:33N 37°38' E 023°56'5316.9
2016-Jul-25 12:23N 37°29' E 025°02'1212.6
2016-Jul-25 11:26N 37°29' E 025°17'2 2.0
2016-Jul-25 10:23N 37°28' E 025°19'18 8.1
2016-Jul-25 08:12N 37°27' E 024°57'5621.2
2016-Jul-25 05:33N 37°39' E 023°48'1919.5
2016-Jul-25 04:34N 37°56' E 023°38'1 0.6
2016-Jul-25 03:33N 37°57' E 023°38'0 0.0
2016-Jul-25 02:33N 37°57' E 023°38'0 0.0
2016-Jul-25 01:33N 37°57' E 023°38'1212.5
2016-Jul-25 00:34N 37°45' E 023°43'2320.7
2016-Jul-24 23:25N 37°33' E 024°09'3920.9
2016-Jul-24 21:33N 37°15' E 024°52'2412.2
2016-Jul-24 19:33N 37°07' E 025°21'8 0.8
2016-Jul-24 10:05N 36°59' E 025°20'713.9
2016-Jul-24 09:33N 37°06' E 025°22'13 8.7
2016-Jul-24 08:03N 37°06' E 025°06'1122.6
2016-Jul-24 07:33N 37°13' E 024°55'4822.2
2016-Jul-24 05:23N 37°35' E 024°01'1821.7
2016-Jul-24 04:34N 37°44' E 023°41'1313.4
2016-Jul-24 03:33N 37°57' E 023°38'0 0.0
2016-Jul-24 02:33N 37°57' E 023°38'0 0.0
2016-Jul-24 01:33N 37°57' E 023°38'0 0.0
2016-Jul-24 00:33N 37°57' E 023°38'0 0.0
2016-Jul-23 23:33N 37°57' E 023°38'0 0.0
2016-Jul-23 22:33N 37°57' E 023°38'0 0.0
2016-Jul-23 21:33N 37°57' E 023°38'0 0.0
2016-Jul-23 20:33N 37°57' E 023°38'0 0.0
2016-Jul-23 19:33N 37°57' E 023°38'0 0.0
2016-Jul-23 18:33N 37°57' E 023°38'0 0.0
2016-Jul-23 17:33N 37°57' E 023°38'4 3.6
2016-Jul-23 16:33N 37°53' E 023°39'2121.0
2016-Jul-23 15:33N 37°37' E 023°56'5316.6
2016-Jul-23 12:22N 37°28' E 025°02'911.4
2016-Jul-23 11:33N 37°30' E 025°13'6 5.6
2016-Jul-23 10:33N 37°28' E 025°20'7 7.0
2016-Jul-23 09:33N 37°31' E 025°12'12 8.5
2016-Jul-23 08:08N 37°27' E 024°57'1119.5
2016-Jul-23 07:33N 37°31' E 024°44'5819.3
2016-Jul-23 04:34N 37°56' E 023°38'1 0.6
2016-Jul-23 03:33N 37°57' E 023°38'1110.6
2016-Jul-23 02:34N 37°47' E 023°42'2222.1
2016-Jul-23 01:33N 37°34' E 024°05'4522.4
2016-Jul-22 23:34N 37°13' E 024°55'11 8.6
2016-Jul-22 22:15N 37°06' E 025°06'1522.4
2016-Jul-22 21:34N 37°15' E 024°50'3121.8
2016-Jul-22 20:08N 37°31' E 024°17'1322.1
2016-Jul-22 19:32N 37°35' E 024°01'2120.9
2016-Jul-22 18:33N 37°46' E 023°39'1110.5
2016-Jul-22 17:33N 37°57' E 023°38'2 2.0
2016-Jul-22 16:33N 37°55' E 023°38'2121.1
2016-Jul-22 15:34N 37°39' E 023°55'5416.8
2016-Jul-22 12:20N 37°28' E 025°02'911.4
2016-Jul-22 11:33N 37°30' E 025°12'6 6.3
2016-Jul-22 10:33N 37°28' E 025°20'9 9.2
2016-Jul-22 09:33N 37°32' E 025°09'11 8.2
2016-Jul-22 08:13N 37°27' E 024°57'5721.3
2016-Jul-22 05:33N 37°39' E 023°47'1919.1
2016-Jul-22 04:34N 37°57' E 023°38'0 0.5
2016-Jul-22 03:33N 37°57' E 023°38'0 0.0
2016-Jul-22 02:33N 37°57' E 023°38'0 0.0
2016-Jul-22 01:33N 37°57' E 023°38'1010.4
2016-Jul-22 00:33N 37°47' E 023°42'2220.9
2016-Jul-21 23:31N 37°34' E 024°04'4321.6
2016-Jul-21 21:31N 37°15' E 024°52'1711.9
2016-Jul-21 20:05N 37°10' E 025°13'815.4
2016-Jul-21 19:33N 37°06' E 025°22'7 6.6
2016-Jul-21 18:34N 36°60' E 025°21'4 0.5
2016-Jul-21 10:34N 37°03' E 025°18'5 4.7
2016-Jul-21 09:33N 37°08' E 025°20'1110.2
2016-Jul-21 08:27N 37°06' E 025°06'7920.3
2016-Jul-21 04:33N 37°45' E 023°40'1212.0
2016-Jul-21 03:33N 37°57' E 023°38'0 0.0
2016-Jul-21 02:34N 37°57' E 023°38'0 0.0
2016-Jul-21 01:34N 37°57' E 023°38'0 0.0
2016-Jul-21 00:33N 37°57' E 023°38'0 0.0
2016-Jul-20 23:34N 37°57' E 023°38'0 0.0
2016-Jul-20 22:34N 37°57' E 023°38'0 0.0
2016-Jul-20 21:33N 37°57' E 023°38'0 0.0
2016-Jul-20 20:33N 37°57' E 023°38'0 0.0
2016-Jul-20 19:33N 37°57' E 023°38'0 0.0
2016-Jul-20 18:33N 37°57' E 023°38'0 0.0
2016-Jul-20 17:34N 37°57' E 023°38'1212.1
2016-Jul-20 16:33N 37°45' E 023°43'2521.9
2016-Jul-20 15:24N 37°33' E 024°11'4113.8
2016-Jul-20 12:26N 37°29' E 025°02'1112.3
2016-Jul-20 11:33N 37°29' E 025°16'3 3.1
2016-Jul-20 10:34N 37°28' E 025°19'9 9.5
2016-Jul-20 09:34N 37°32' E 025°09'6516.2
2016-Jul-20 05:33N 37°39' E 023°47'1919.0
2016-Jul-20 04:34N 37°57' E 023°38'0 0.5
2016-Jul-20 03:33N 37°57' E 023°38'0 0.0
2016-Jul-20 02:33N 37°57' E 023°38'0 0.0
2016-Jul-20 01:33N 37°57' E 023°38'1413.6
2016-Jul-20 00:33N 37°44' E 023°44'2221.0
2016-Jul-19 23:31N 37°29' E 024°04'4220.8
2016-Jul-19 21:28N 37°10' E 024°52'1712.4
2016-Jul-19 20:06N 37°09' E 025°13'814.9
2016-Jul-19 19:34N 37°06' E 025°22'7 6.9
2016-Jul-19 18:33N 36°60' E 025°21'0 0.0
2016-Jul-19 10:21N 36°59' E 025°21'7 9.0
2016-Jul-19 09:33N 37°06' E 025°22'13 9.8
2016-Jul-19 08:14N 37°06' E 025°06'7921.4
2016-Jul-19 04:33N 37°45' E 023°40'1212.2
2016-Jul-19 03:33N 37°57' E 023°38'0 0.0
2016-Jul-19 02:33N 37°57' E 023°38'0 0.0
2016-Jul-19 01:33N 37°57' E 023°38'0 0.0
2016-Jul-19 00:33N 37°57' E 023°38'0 0.0
2016-Jul-18 23:33N 37°57' E 023°38'0 0.0
2016-Jul-18 22:34N 37°57' E 023°38'0 0.0
2016-Jul-18 21:33N 37°57' E 023°38'0 0.0
2016-Jul-18 20:33N 37°57' E 023°38'0 0.0
2016-Jul-18 19:33N 37°57' E 023°38'0 0.0
2016-Jul-18 18:33N 37°57' E 023°38'0 0.0
2016-Jul-18 17:33N 37°57' E 023°38'1010.1
2016-Jul-18 16:33N 37°47' E 023°42'2721.3
2016-Jul-18 15:19N 37°33' E 024°10'2622.5
2016-Jul-18 14:08N 37°31' E 024°44'15 8.6
2016-Jul-18 12:24N 37°29' E 025°02'910.5
2016-Jul-18 11:33N 37°30' E 025°13'5 5.5
2016-Jul-18 10:34N 37°28' E 025°19'  
Track history (hours):
 
Tides and Currents Weather Stations Pressure Air Temp Water Temp Dewpoint Dewpoint Depression Visibility Wind Speed Wind Dir Waves Ship Positions

Blue Star Naxos

Last reported at 2016-Jul-28 10:16 UTC. Time now 2016-Jul-28 18:24 UTC.
Position N 36°59' E 025°20'.

Length 124 m; draft 5 m.

Type: Passenger vessel. MMSI: 239923000.

Date/timePositionNaut miles runAvg speedWind from/ knotsBaromVisibWave heightAir tempDewpointWater temp
2016-Jul-28 10:16N 36°59' E 025°20'710.5
2016-Jul-28 09:33N 37°06' E 025°22'13 9.3
2016-Jul-28 08:09N 37°06' E 025°06'1321.8
2016-Jul-28 07:34N 37°13' E 024°52'4721.9
2016-Jul-28 05:26N 37°35' E 024°00'1921.4
2016-Jul-28 04:33N 37°44' E 023°40'1312.5
2016-Jul-28 03:33N 37°57' E 023°38'0 0.0
2016-Jul-28 02:33N 37°57' E 023°38'0 0.0
2016-Jul-28 01:33N 37°57' E 023°38'0 0.0
2016-Jul-28 00:33N 37°57' E 023°38'0 0.0
2016-Jul-27 23:34N 37°57' E 023°38'0 0.0
2016-Jul-27 22:33N 37°57' E 023°38'0 0.0
2016-Jul-27 21:33N 37°57' E 023°38'0 0.0
2016-Jul-27 20:33N 37°57' E 023°38'0 0.0
2016-Jul-27 19:33N 37°57' E 023°38'0 0.0
2016-Jul-27 18:34N 37°57' E 023°38'0 0.0
2016-Jul-27 17:33N 37°57' E 023°38'4 3.9
2016-Jul-27 16:34N 37°53' E 023°39'2120.9
2016-Jul-27 15:33N 37°37' E 023°57'5416.4
2016-Jul-27 12:17N 37°30' E 025°04'811.2
2016-Jul-27 11:33N 37°30' E 025°14'5 4.8
2016-Jul-27 10:34N 37°28' E 025°19'9 9.1
2016-Jul-27 09:33N 37°32' E 025°09'11 8.1
2016-Jul-27 08:12N 37°27' E 024°57'5721.4
2016-Jul-27 05:34N 37°39' E 023°47'1919.2
2016-Jul-27 04:33N 37°57' E 023°38'0 0.4
2016-Jul-27 03:34N 37°57' E 023°38'0 0.0
2016-Jul-27 02:33N 37°57' E 023°38'0 0.0
2016-Jul-27 01:33N 37°57' E 023°38'1110.8
2016-Jul-27 00:33N 37°46' E 023°42'2120.6
2016-Jul-26 23:33N 37°35' E 024°04'4321.4
2016-Jul-26 21:33N 37°15' E 024°52'2512.7
2016-Jul-26 19:33N 37°07' E 025°22'8 0.8
2016-Jul-26 10:11N 36°59' E 025°20'711.8
2016-Jul-26 09:33N 37°06' E 025°22'2211.1
2016-Jul-26 07:33N 37°12' E 024°55'6622.0
2016-Jul-26 04:33N 37°42' E 023°42'1514.8
2016-Jul-26 03:33N 37°57' E 023°38'0 0.0
2016-Jul-26 02:34N 37°57' E 023°38'0 0.0
2016-Jul-26 01:33N 37°57' E 023°38'0 0.0
2016-Jul-26 00:33N 37°57' E 023°38'0 0.0
2016-Jul-25 23:33N 37°57' E 023°38'0 0.0
2016-Jul-25 22:34N 37°57' E 023°38'0 0.0
2016-Jul-25 21:33N 37°57' E 023°38'0 0.0
2016-Jul-25 20:33N 37°57' E 023°38'0 0.0
2016-Jul-25 19:33N 37°57' E 023°38'0 0.0
2016-Jul-25 18:33N 37°57' E 023°38'0 0.0
2016-Jul-25 17:33N 37°57' E 023°38'3 2.9
2016-Jul-25 16:34N 37°54' E 023°38'2120.9
2016-Jul-25 15:33N 37°38' E 023°56'5316.9
2016-Jul-25 12:23N 37°29' E 025°02'1212.6
2016-Jul-25 11:26N 37°29' E 025°17'2 2.0
2016-Jul-25 10:23N 37°28' E 025°19'18 8.1
2016-Jul-25 08:12N 37°27' E 024°57'5621.2
2016-Jul-25 05:33N 37°39' E 023°48'1919.5
2016-Jul-25 04:34N 37°56' E 023°38'1 0.6
2016-Jul-25 03:33N 37°57' E 023°38'0 0.0
2016-Jul-25 02:33N 37°57' E 023°38'0 0.0
2016-Jul-25 01:33N 37°57' E 023°38'1212.5
2016-Jul-25 00:34N 37°45' E 023°43'2320.7
2016-Jul-24 23:25N 37°33' E 024°09'3920.9
2016-Jul-24 21:33N 37°15' E 024°52'2412.2
2016-Jul-24 19:33N 37°07' E 025°21'8 0.8
2016-Jul-24 10:05N 36°59' E 025°20'713.9
2016-Jul-24 09:33N 37°06' E 025°22'13 8.7
2016-Jul-24 08:03N 37°06' E 025°06'1122.6
2016-Jul-24 07:33N 37°13' E 024°55'4822.2
2016-Jul-24 05:23N 37°35' E 024°01'1821.7
2016-Jul-24 04:34N 37°44' E 023°41'1313.4
2016-Jul-24 03:33N 37°57' E 023°38'0 0.0
2016-Jul-24 02:33N 37°57' E 023°38'0 0.0
2016-Jul-24 01:33N 37°57' E 023°38'0 0.0
2016-Jul-24 00:33N 37°57' E 023°38'0 0.0
2016-Jul-23 23:33N 37°57' E 023°38'0 0.0
2016-Jul-23 22:33N 37°57' E 023°38'0 0.0
2016-Jul-23 21:33N 37°57' E 023°38'0 0.0
2016-Jul-23 20:33N 37°57' E 023°38'0 0.0
2016-Jul-23 19:33N 37°57' E 023°38'0 0.0
2016-Jul-23 18:33N 37°57' E 023°38'0 0.0
2016-Jul-23 17:33N 37°57' E 023°38'4 3.6
2016-Jul-23 16:33N 37°53' E 023°39'2121.0
2016-Jul-23 15:33N 37°37' E 023°56'5316.6
2016-Jul-23 12:22N 37°28' E 025°02'911.4
2016-Jul-23 11:33N 37°30' E 025°13'6 5.6
2016-Jul-23 10:33N 37°28' E 025°20'7 7.0
2016-Jul-23 09:33N 37°31' E 025°12'12 8.5
2016-Jul-23 08:08N 37°27' E 024°57'1119.5
2016-Jul-23 07:33N 37°31' E 024°44'5819.3
2016-Jul-23 04:34N 37°56' E 023°38'1 0.6
2016-Jul-23 03:33N 37°57' E 023°38'1110.6
2016-Jul-23 02:34N 37°47' E 023°42'2222.1
2016-Jul-23 01:33N 37°34' E 024°05'4522.4
2016-Jul-22 23:34N 37°13' E 024°55'11 8.6
2016-Jul-22 22:15N 37°06' E 025°06'1522.4
2016-Jul-22 21:34N 37°15' E 024°50'3121.8
2016-Jul-22 20:08N 37°31' E 024°17'1322.1
2016-Jul-22 19:32N 37°35' E 024°01'2120.9
2016-Jul-22 18:33N 37°46' E 023°39'1110.5
2016-Jul-22 17:33N 37°57' E 023°38'2 2.0
2016-Jul-22 16:33N 37°55' E 023°38'2121.1
2016-Jul-22 15:34N 37°39' E 023°55'5416.8
2016-Jul-22 12:20N 37°28' E 025°02'911.4
2016-Jul-22 11:33N 37°30' E 025°12'6 6.3
2016-Jul-22 10:33N 37°28' E 025°20'9 9.2
2016-Jul-22 09:33N 37°32' E 025°09'11 8.2
2016-Jul-22 08:13N 37°27' E 024°57'5721.3
2016-Jul-22 05:33N 37°39' E 023°47'1919.1
2016-Jul-22 04:34N 37°57' E 023°38'0 0.5
2016-Jul-22 03:33N 37°57' E 023°38'0 0.0
2016-Jul-22 02:33N 37°57' E 023°38'0 0.0
2016-Jul-22 01:33N 37°57' E 023°38'1010.4
2016-Jul-22 00:33N 37°47' E 023°42'2220.9
2016-Jul-21 23:31N 37°34' E 024°04'4321.6
2016-Jul-21 21:31N 37°15' E 024°52'1711.9
2016-Jul-21 20:05N 37°10' E 025°13'815.4
2016-Jul-21 19:33N 37°06' E 025°22'7 6.6
2016-Jul-21 18:34N 36°60' E 025°21'4 0.5
2016-Jul-21 10:34N 37°03' E 025°18'5 4.7
2016-Jul-21 09:33N 37°08' E 025°20'1110.2
2016-Jul-21 08:27N 37°06' E 025°06'7920.3
2016-Jul-21 04:33N 37°45' E 023°40'1212.0
2016-Jul-21 03:33N 37°57' E 023°38'0 0.0
2016-Jul-21 02:34N 37°57' E 023°38'0 0.0
2016-Jul-21 01:34N 37°57' E 023°38'0 0.0
2016-Jul-21 00:33N 37°57' E 023°38'0 0.0
2016-Jul-20 23:34N 37°57' E 023°38'0 0.0
2016-Jul-20 22:34N 37°57' E 023°38'0 0.0
2016-Jul-20 21:33N 37°57' E 023°38'0 0.0
2016-Jul-20 20:33N 37°57' E 023°38'0 0.0
2016-Jul-20 19:33N 37°57' E 023°38'0 0.0
2016-Jul-20 18:33N 37°57' E 023°38'0 0.0
2016-Jul-20 17:34N 37°57' E 023°38'1212.1
2016-Jul-20 16:33N 37°45' E 023°43'2521.9
2016-Jul-20 15:24N 37°33' E 024°11'4113.8
2016-Jul-20 12:26N 37°29' E 025°02'1112.3
2016-Jul-20 11:33N 37°29' E 025°16'3 3.1
2016-Jul-20 10:34N 37°28' E 025°19'9 9.5
2016-Jul-20 09:34N 37°32' E 025°09'6516.2
2016-Jul-20 05:33N 37°39' E 023°47'1919.0
2016-Jul-20 04:34N 37°57' E 023°38'0 0.5
2016-Jul-20 03:33N 37°57' E 023°38'0 0.0
2016-Jul-20 02:33N 37°57' E 023°38'0 0.0
2016-Jul-20 01:33N 37°57' E 023°38'1413.6
2016-Jul-20 00:33N 37°44' E 023°44'2221.0
2016-Jul-19 23:31N 37°29' E 024°04'4220.8
2016-Jul-19 21:28N 37°10' E 024°52'1712.4
2016-Jul-19 20:06N 37°09' E 025°13'814.9
2016-Jul-19 19:34N 37°06' E 025°22'7 6.9
2016-Jul-19 18:33N 36°60' E 025°21'0 0.0
2016-Jul-19 10:21N 36°59' E 025°21'7 9.0
2016-Jul-19 09:33N 37°06' E 025°22'13 9.8
2016-Jul-19 08:14N 37°06' E 025°06'7921.4
2016-Jul-19 04:33N 37°45' E 023°40'1212.2
2016-Jul-19 03:33N 37°57' E 023°38'0 0.0
2016-Jul-19 02:33N 37°57' E 023°38'0 0.0
2016-Jul-19 01:33N 37°57' E 023°38'0 0.0
2016-Jul-19 00:33N 37°57' E 023°38'0 0.0
2016-Jul-18 23:33N 37°57' E 023°38'0 0.0
2016-Jul-18 22:34N 37°57' E 023°38'0 0.0
2016-Jul-18 21:33N 37°57' E 023°38'0 0.0
2016-Jul-18 20:33N 37°57' E 023°38'0 0.0
2016-Jul-18 19:33N 37°57' E 023°38'0 0.0
2016-Jul-18 18:33N 37°57' E 023°38'0 0.0
2016-Jul-18 17:33N 37°57' E 023°38'1010.1
2016-Jul-18 16:33N 37°47' E 023°42'2721.3
2016-Jul-18 15:19N 37°33' E 024°10'2622.5
2016-Jul-18 14:08N 37°31' E 024°44'15 8.6
2016-Jul-18 12:24N 37°29' E 025°02'910.5
2016-Jul-18 11:33N 37°30' E 025°13'5 5.5
2016-Jul-18 10:34N 37°28' E 025°19'  

Dump ship's entire track history